Time;durP1;ratioP1;P1;durP2;ratioP2;P2;SDS_P1;SDS_P2;PMS_P1;PMS_P2;Temp;Humidity;BMP_temperature;BMP_pressure;BME280_temperature;BME280_humidity;BME280_pressure;Samples;Min_cycle;Max_cycle;Signal;HPM_P1;HPM_P2
2023/12/12 00:00:32;;;;;;;6.95;2.63;;;;;;;6.82;100.00;100742.00;5010450;28;20507;-89
2023/12/12 00:02:58;;;;;;;8.77;2.72;;;;;;;6.79;100.00;100737.72;5011642;28;20473;-90
2023/12/12 00:05:24;;;;;;;5.85;2.55;;;;;;;6.76;100.00;100727.41;4996926;28;20034;-89
2023/12/12 00:07:50;;;;;;;5.75;2.60;;;;;;;6.74;100.00;100736.09;4996267;28;20022;-91
2023/12/12 00:10:15;;;;;;;7.00;2.92;;;;;;;6.71;100.00;100739.53;5005906;28;20503;-90
2023/12/12 00:12:40;;;;;;;7.28;2.55;;;;;;;6.67;100.00;100740.44;5011402;28;20557;-91
2023/12/12 00:15:06;;;;;;;7.10;2.95;;;;;;;6.65;100.00;100755.13;5010140;28;20046;-90
2023/12/12 00:17:31;;;;;;;9.40;3.20;;;;;;;6.62;100.00;100742.25;5009723;28;20551;-90
2023/12/12 00:19:57;;;;;;;8.43;3.15;;;;;;;6.59;100.00;100747.44;5011109;28;20025;-90
2023/12/12 00:22:22;;;;;;;6.85;2.95;;;;;;;6.56;100.00;100750.03;5005533;28;20033;-89
2023/12/12 00:24:48;;;;;;;5.93;2.83;;;;;;;6.53;100.00;100756.97;5012340;28;20021;-90
2023/12/12 00:27:13;;;;;;;7.75;2.85;;;;;;;6.50;100.00;100758.72;5008122;28;20072;-90
2023/12/12 00:29:40;;;;;;;6.40;2.83;;;;;;;6.48;100.00;100747.53;5007935;28;20025;-88
2023/12/12 00:32:06;;;;;;;7.20;2.70;;;;;;;6.44;100.00;100749.31;5007429;28;20137;-89
2023/12/12 00:34:34;;;;;;;5.03;2.60;;;;;;;6.42;100.00;100747.59;5011179;28;20113;-90
2023/12/12 00:36:59;;;;;;;7.97;2.30;;;;;;;6.41;100.00;100753.63;4999514;28;20042;-91
2023/12/12 00:39:25;;;;;;;5.85;2.33;;;;;;;6.38;100.00;100747.66;5003672;28;20592;-90
2023/12/12 00:41:50;;;;;;;7.38;2.67;;;;;;;6.38;100.00;100751.94;5010960;28;20537;-90
2023/12/12 00:44:15;;;;;;;7.30;2.40;;;;;;;6.38;100.00;100751.94;5007646;28;20033;-90
2023/12/12 00:46:41;;;;;;;5.53;2.35;;;;;;;6.40;100.00;100750.22;5007655;28;20022;-89
2023/12/12 00:49:06;;;;;;;7.50;2.35;;;;;;;6.42;100.00;100748.47;5010582;28;20021;-90
2023/12/12 00:51:32;;;;;;;5.95;2.45;;;;;;;6.45;100.00;100752.75;5003105;28;20022;-90
2023/12/12 00:53:57;;;;;;;10.45;2.70;;;;;;;6.47;100.00;100745.84;5004360;28;20061;-90
2023/12/12 00:56:23;;;;;;;6.95;2.40;;;;;;;6.48;100.00;100732.91;5006818;28;20054;-89
2023/12/12 00:58:48;;;;;;;6.50;2.40;;;;;;;6.50;100.00;100735.47;4999264;28;20028;-91
2023/12/12 01:01:14;;;;;;;7.57;2.47;;;;;;;6.51;100.00;100738.03;5003643;28;20037;-89
2023/12/12 01:03:39;;;;;;;6.85;2.47;;;;;;;6.52;100.00;100741.47;5005544;28;20026;-91
2023/12/12 01:06:05;;;;;;;5.35;2.55;;;;;;;6.51;100.00;100732.84;5006515;28;20492;-90
2023/12/12 01:08:31;;;;;;;6.47;2.45;;;;;;;6.50;100.00;100731.13;5006179;28;20092;-90
2023/12/12 01:10:56;;;;;;;7.25;2.58;;;;;;;6.51;100.00;100727.69;5006934;28;20029;-91
2023/12/12 01:13:21;;;;;;;5.97;2.38;;;;;;;6.49;100.00;100723.41;5008211;28;20037;-90
2023/12/12 01:15:47;;;;;;;7.03;2.47;;;;;;;6.48;100.00;100726.88;5008573;28;20091;-91
2023/12/12 01:18:12;;;;;;;7.28;2.60;;;;;;;6.45;100.00;100722.59;5009720;28;20030;-90
2023/12/12 01:20:37;;;;;;;7.53;2.33;;;;;;;6.43;100.00;100733.81;5002486;28;20354;-91
2023/12/12 01:23:03;;;;;;;7.88;2.30;;;;;;;6.39;100.00;100733.00;5000999;28;20022;-90
2023/12/12 01:25:29;;;;;;;6.03;2.72;;;;;;;6.36;100.00;100722.69;5008915;28;20469;-90
2023/12/12 01:27:54;;;;;;;5.63;2.38;;;;;;;6.32;100.00;100718.44;5016093;28;20022;-89
2023/12/12 01:30:20;;;;;;;8.40;2.67;;;;;;;6.31;100.00;100714.13;5005219;28;20022;-89
2023/12/12 01:32:45;;;;;;;6.90;2.30;;;;;;;6.29;100.00;100713.28;5007174;28;20038;-90
2023/12/12 01:35:11;;;;;;;7.68;2.42;;;;;;;6.29;100.00;100713.28;5001696;28;20080;-91
2023/12/12 01:37:36;;;;;;;12.07;2.78;;;;;;;6.28;100.00;100706.41;5012144;28;20065;-88
2023/12/12 01:40:02;;;;;;;9.57;2.45;;;;;;;6.27;100.00;100712.44;5009863;28;20423;-91
2023/12/12 01:42:27;;;;;;;6.18;2.38;;;;;;;6.26;100.00;100706.41;5008318;28;20048;-89
2023/12/12 01:44:52;;;;;;;9.80;2.40;;;;;;;6.26;100.00;100700.41;5004483;28;20408;-90
2023/12/12 01:47:18;;;;;;;5.80;2.45;;;;;;;6.23;100.00;100701.31;5008525;28;20477;-89
2023/12/12 01:49:44;;;;;;;7.28;2.35;;;;;;;6.22;100.00;100708.19;4996842;28;20507;-90
2023/12/12 01:52:11;;;;;;;7.07;2.35;;;;;;;6.19;100.00;100699.63;5002498;28;20034;-90
2023/12/12 01:54:39;;;;;;;8.32;2.67;;;;;;;6.18;100.00;100703.91;5007666;28;20033;-92
2023/12/12 01:57:05;;;;;;;8.45;2.50;;;;;;;6.15;100.00;100697.94;5008464;28;20069;-90
2023/12/12 01:59:31;;;;;;;6.05;2.53;;;;;;;6.15;100.00;100698.75;5002384;28;20021;-90
2023/12/12 02:01:57;;;;;;;9.05;2.38;;;;;;;6.12;100.00;100704.00;5006766;28;20034;-90
2023/12/12 02:04:22;;;;;;;7.32;2.42;;;;;;;6.11;100.00;100698.81;5004497;28;20037;-90
2023/12/12 02:06:49;;;;;;;10.80;2.80;;;;;;;6.09;100.00;100693.69;5012133;28;20092;-90
2023/12/12 02:09:15;;;;;;;5.97;2.50;;;;;;;6.08;100.00;100697.13;5002352;28;20474;-90
2023/12/12 02:11:40;;;;;;;6.25;2.55;;;;;;;6.04;100.00;100696.31;5002089;28;20044;-88
2023/12/12 02:14:08;;;;;;;9.55;3.00;;;;;;;6.02;100.00;100698.06;5009940;28;20035;-89
2023/12/12 02:16:33;;;;;;;7.50;2.47;;;;;;;6.02;100.00;100697.19;5004869;28;20038;-90
2023/12/12 02:18:58;;;;;;;8.18;2.63;;;;;;;6.01;100.00;100696.34;5005152;28;20553;-89
2023/12/12 02:21:24;;;;;;;6.00;2.53;;;;;;;5.99;100.00;100697.16;5010635;28;20026;-88
2023/12/12 02:23:49;;;;;;;8.57;2.60;;;;;;;5.97;100.00;100694.59;5021367;28;20022;-88
2023/12/12 02:26:16;;;;;;;7.32;2.50;;;;;;;5.98;100.00;100698.06;5017940;28;20044;-88
2023/12/12 02:28:41;;;;;;;9.50;2.75;;;;;;;5.97;100.00;100694.59;5013393;28;20026;-87
2023/12/12 02:31:08;;;;;;;10.00;2.60;;;;;;;5.97;100.00;100692.03;5009924;28;20432;-87
2023/12/12 02:33:33;;;;;;;7.93;2.63;;;;;;;5.98;100.00;100691.16;5012824;28;20433;-88
2023/12/12 02:35:58;;;;;;;8.45;2.90;;;;;;;5.98;100.00;100685.16;5003271;28;20636;-87
2023/12/12 02:38:24;;;;;;;8.52;2.50;;;;;;;5.95;100.00;100691.19;5011307;28;20110;-88
2023/12/12 02:40:49;;;;;;;7.88;2.50;;;;;;;5.92;100.00;100692.06;5011312;28;20028;-88
2023/12/12 02:43:14;;;;;;;10.70;2.53;;;;;;;5.88;100.00;100689.53;5010695;28;20030;-88
2023/12/12 02:45:40;;;;;;;9.18;2.30;;;;;;;5.85;100.00;100677.50;5013463;28;20388;-88
2023/12/12 02:48:05;;;;;;;10.50;2.55;;;;;;;5.84;100.00;100680.94;5009996;28;20408;-88
2023/12/12 02:50:31;;;;;;;8.45;2.75;;;;;;;5.83;100.00;100686.97;5021579;28;20021;-88
2023/12/12 02:52:57;;;;;;;6.82;2.38;;;;;;;5.81;100.00;100678.38;5012188;28;20099;-90
2023/12/12 02:55:23;;;;;;;7.47;2.40;;;;;;;5.79;100.00;100680.16;5012714;28;20550;-88
2023/12/12 02:57:48;;;;;;;9.57;2.70;;;;;;;5.77;100.00;100684.47;5017128;28;20022;-88
2023/12/12 03:00:14;;;;;;;8.32;2.30;;;;;;;5.75;100.00;100686.19;5011222;28;20449;-88
2023/12/12 03:02:39;;;;;;;7.70;2.65;;;;;;;5.71;100.00;100687.09;5012214;28;20568;-87
2023/12/12 03:05:05;;;;;;;9.02;3.00;;;;;;;5.69;100.00;100694.84;5011994;28;20022;-88
2023/12/12 03:07:30;;;;;;;11.68;2.80;;;;;;;5.66;100.00;100687.13;5011172;28;20056;-88
2023/12/12 03:09:56;;;;;;;10.25;2.90;;;;;;;5.64;100.00;100688.03;5015187;28;20073;-88
2023/12/12 03:12:21;;;;;;;8.90;2.97;;;;;;;5.61;100.00;100689.75;5012094;28;20033;-88
2023/12/12 03:14:47;;;;;;;12.88;3.42;;;;;;;5.57;100.00;100684.59;5008582;28;20116;-87
2023/12/12 03:17:12;;;;;;;14.85;4.00;;;;;;;5.53;100.00;100678.63;5011480;28;20030;-88
2023/12/12 03:19:37;;;;;;;13.65;4.00;;;;;;;5.52;100.00;100676.91;5011989;28;20021;-88
2023/12/12 03:22:03;;;;;;;10.15;3.90;;;;;;;5.50;100.00;100673.47;5012891;28;20026;-88
2023/12/12 03:24:28;;;;;;;9.55;3.67;;;;;;;5.48;100.00;100672.63;5005307;28;20022;-88
2023/12/12 03:26:54;;;;;;;11.10;4.05;;;;;;;5.47;100.00;100669.22;5014906;28;20096;-88
2023/12/12 03:29:19;;;;;;;13.70;3.85;;;;;;;5.46;100.00;100669.22;5013198;28;20104;-88
2023/12/12 03:31:44;;;;;;;11.90;3.72;;;;;;;5.44;100.00;100669.22;5019472;28;20022;-88
2023/12/12 03:34:10;;;;;;;12.43;3.33;;;;;;;5.44;100.00;100663.22;5021896;28;20060;-88
2023/12/12 03:36:35;;;;;;;12.30;3.90;;;;;;;5.42;100.00;100665.78;5022552;28;20052;-88
2023/12/12 03:39:02;;;;;;;13.45;4.25;;;;;;;5.44;100.00;100658.06;5009564;28;20031;-87
2023/12/12 03:41:30;;;;;;;11.23;4.22;;;;;;;5.44;100.00;100663.22;5012038;28;20048;-88
2023/12/12 03:43:56;;;;;;;12.50;3.75;;;;;;;5.45;100.00;100664.94;5011497;28;20392;-87
2023/12/12 03:46:21;;;;;;;11.65;3.97;;;;;;;5.45;100.00;100662.34;5012629;28;20481;-88
2023/12/12 03:48:46;;;;;;;10.02;3.33;;;;;;;5.45;100.00;100654.63;5012479;28;20029;-88
2023/12/12 03:51:12;;;;;;;12.68;3.22;;;;;;;5.45;100.00;100657.19;5012127;28;20370;-88
2023/12/12 03:53:39;;;;;;;8.48;3.50;;;;;;;5.43;100.00;100635.72;5009144;28;20379;-89
2023/12/12 03:56:05;;;;;;;10.13;2.88;;;;;;;5.42;100.00;100639.16;5012274;28;20033;-88
2023/12/12 03:58:30;;;;;;;12.20;3.40;;;;;;;5.40;100.00;100631.41;5012322;28;20021;-89
2023/12/12 04:00:56;;;;;;;9.85;2.83;;;;;;;5.39;100.00;100631.44;5005372;28;20048;-88
2023/12/12 04:03:21;;;;;;;10.82;2.90;;;;;;;5.37;100.00;100630.59;5010897;28;20027;-87
2023/12/12 04:05:47;;;;;;;11.60;3.10;;;;;;;5.36;100.00;100623.72;5010878;28;20067;-88
2023/12/12 04:08:12;;;;;;;11.38;3.00;;;;;;;5.34;100.00;100626.31;5013032;28;20071;-88
2023/12/12 04:10:37;;;;;;;9.25;2.75;;;;;;;5.33;100.00;100614.28;5011213;28;20030;-88
2023/12/12 04:13:03;;;;;;;10.63;2.45;;;;;;;5.35;100.00;100609.09;5010957;28;20038;-88
2023/12/12 04:15:28;;;;;;;8.30;2.30;;;;;;;5.36;100.00;100613.38;5008651;28;20081;-87
2023/12/12 04:17:54;;;;;;;12.20;2.50;;;;;;;5.36;100.00;100613.38;5010176;28;20032;-88
2023/12/12 04:20:19;;;;;;;13.15;2.67;;;;;;;5.35;100.00;100607.38;5013270;28;20036;-88
2023/12/12 04:22:44;;;;;;;10.38;2.65;;;;;;;5.37;100.00;100612.53;5011360;28;20040;-88
2023/12/12 04:25:13;;;;;;;12.07;2.75;;;;;;;5.36;100.00;100608.22;5008938;28;20057;-88
2023/12/12 04:27:39;;;;;;;8.20;2.55;;;;;;;5.37;100.00;100607.38;5010359;28;20026;-88
2023/12/12 04:30:05;;;;;;;8.27;2.47;;;;;;;5.39;100.00;100610.78;5007988;28;20032;-88
2023/12/12 04:32:31;;;;;;;8.32;2.40;;;;;;;5.39;100.00;100608.22;5005170;28;20022;-88
2023/12/12 04:34:57;;;;;;;9.05;2.50;;;;;;;5.44;100.00;100606.47;5010080;28;20037;-88
2023/12/12 04:37:22;;;;;;;7.43;2.20;;;;;;;5.46;100.00;100609.88;5011491;28;20418;-88
2023/12/12 04:39:48;;;;;;;9.05;2.58;;;;;;;5.50;100.00;100603.81;5011092;28;20030;-88
2023/12/12 04:42:13;;;;;;;10.00;2.67;;;;;;;5.52;100.00;100607.22;5016261;28;20048;-88
2023/12/12 04:44:43;;;;;;;10.48;2.90;;;;;;;5.56;100.00;100608.94;5023724;28;20025;-88
2023/12/12 04:47:09;;;;;;;12.40;2.63;;;;;;;5.57;100.00;100610.63;5010372;28;20026;-88
2023/12/12 04:49:34;;;;;;;8.55;2.67;;;;;;;5.60;100.00;100602.88;5012229;28;20053;-88
2023/12/12 04:52:00;;;;;;;9.55;2.40;;;;;;;5.62;100.00;100608.00;5011424;28;20029;-88
2023/12/12 04:54:25;;;;;;;9.23;2.25;;;;;;;5.62;100.00;100601.16;5010063;28;20026;-88
2023/12/12 04:56:50;;;;;;;9.73;2.55;;;;;;;5.63;100.00;100596.81;5012031;28;20484;-88
2023/12/12 04:59:16;;;;;;;10.65;2.72;;;;;;;5.64;100.00;100590.78;5007408;28;20033;-88
2023/12/12 05:01:42;;;;;;;9.85;2.63;;;;;;;5.67;100.00;100584.72;5009391;28;20037;-88
2023/12/12 05:04:07;;;;;;;11.18;2.70;;;;;;;5.68;100.00;100584.75;5010426;28;20025;-88
2023/12/12 05:06:32;;;;;;;12.15;2.90;;;;;;;5.70;100.00;100576.97;5019822;28;20535;-88
2023/12/12 05:08:58;;;;;;;8.32;2.65;;;;;;;5.70;100.00;100571.81;5010332;28;20029;-88
2023/12/12 05:11:23;;;;;;;10.68;2.72;;;;;;;5.70;100.00;100569.22;5012629;28;20030;-89
2023/12/12 05:13:48;;;;;;;9.45;2.55;;;;;;;5.71;100.00;100568.34;5013737;28;20414;-88
2023/12/12 05:16:14;;;;;;;9.55;2.60;;;;;;;5.72;100.00;100570.06;5010635;28;20087;-88
2023/12/12 05:18:39;;;;;;;10.85;2.65;;;;;;;5.71;100.00;100564.06;5009590;28;20029;-88
2023/12/12 05:21:05;;;;;;;11.07;2.70;;;;;;;5.72;100.00;100563.16;5011276;28;20021;-88
2023/12/12 05:23:30;;;;;;;7.82;2.60;;;;;;;5.74;100.00;100563.16;5010046;28;20025;-88
2023/12/12 05:25:55;;;;;;;7.68;2.58;;;;;;;5.76;100.00;100561.44;5009622;28;20056;-89
2023/12/12 05:28:21;;;;;;;8.55;2.50;;;;;;;5.77;100.00;100555.41;5011362;28;20143;-88
2023/12/12 05:30:47;;;;;;;12.05;2.72;;;;;;;5.78;100.00;100549.38;5010206;28;20056;-88
2023/12/12 05:33:15;;;;;;;11.10;2.65;;;;;;;5.79;100.00;100553.66;5009910;28;20378;-88
2023/12/12 05:35:41;;;;;;;11.43;2.63;;;;;;;5.81;100.00;100549.31;5010583;28;20032;-88
2023/12/12 05:38:09;;;;;;;9.63;2.65;;;;;;;5.81;100.00;100544.16;5010160;28;20034;-88
2023/12/12 05:40:35;;;;;;;10.70;2.58;;;;;;;5.83;100.00;100551.88;5014993;28;20112;-89
2023/12/12 05:43:00;;;;;;;12.75;2.80;;;;;;;5.85;100.00;100551.00;5006049;28;20157;-88
2023/12/12 05:45:26;;;;;;;8.13;2.97;;;;;;;5.87;100.00;100559.56;5013771;28;20038;-88
2023/12/12 05:47:51;;;;;;;11.93;2.92;;;;;;;5.88;100.00;100550.13;5013837;28;20267;-91
2023/12/12 05:50:18;;;;;;;12.50;3.25;;;;;;;5.89;100.00;100544.09;5013741;28;20041;-88
2023/12/12 05:52:43;;;;;;;11.63;3.08;;;;;;;5.89;100.00;100550.09;5007719;28;20419;-88
2023/12/12 05:55:08;;;;;;;13.60;2.83;;;;;;;5.91;100.00;100553.53;5010011;28;20104;-88
2023/12/12 05:57:34;;;;;;;13.18;3.15;;;;;;;5.91;100.00;100552.66;5018796;28;20053;-88
2023/12/12 06:00:00;;;;;;;9.88;3.03;;;;;;;5.92;100.00;100552.66;5016504;28;20041;-88
2023/12/12 06:02:25;;;;;;;16.20;3.20;;;;;;;5.93;100.00;100551.78;5011326;28;20108;-88
2023/12/12 06:04:51;;;;;;;13.40;3.10;;;;;;;5.95;100.00;100546.59;5013800;28;20022;-88
2023/12/12 06:07:17;;;;;;;11.40;3.17;;;;;;;5.95;100.00;100541.41;5013946;28;20496;-88
2023/12/12 06:09:43;;;;;;;10.18;2.78;;;;;;;5.97;100.00;100541.41;5013826;28;20022;-88
2023/12/12 06:12:08;;;;;;;9.20;2.72;;;;;;;5.98;100.00;100545.72;5014001;28;20026;-88
2023/12/12 06:14:35;;;;;;;11.77;3.22;;;;;;;5.98;100.00;100536.22;5014963;28;20040;-88
2023/12/12 06:17:00;;;;;;;13.13;3.03;;;;;;;5.99;100.00;100544.81;5008068;28;20046;-88
2023/12/12 06:19:25;;;;;;;15.25;3.00;;;;;;;5.99;100.00;100537.06;5012576;28;20021;-88
2023/12/12 06:21:53;;;;;;;10.20;3.03;;;;;;;6.00;100.00;100534.50;5009916;28;20362;-88
2023/12/12 06:24:19;;;;;;;11.68;2.97;;;;;;;6.02;100.00;100539.66;5013606;28;20022;-88
2023/12/12 06:26:44;;;;;;;11.80;2.90;;;;;;;6.04;100.00;100533.63;5020240;28;20533;-88
2023/12/12 06:29:09;;;;;;;13.73;3.22;;;;;;;6.05;100.00;100529.28;5021339;28;20026;-88
2023/12/12 06:31:35;;;;;;;12.50;2.85;;;;;;;6.05;100.00;100529.28;5014909;28;20030;-88
2023/12/12 06:34:01;;;;;;;10.70;2.97;;;;;;;6.08;100.00;100526.69;5011493;28;20048;-88
2023/12/12 06:36:26;;;;;;;9.88;2.97;;;;;;;6.08;100.00;100516.34;5011949;28;20184;-88
2023/12/12 06:38:52;;;;;;;11.80;3.00;;;;;;;6.12;100.00;100518.03;5021016;28;20025;-88
2023/12/12 06:41:18;;;;;;;13.35;2.67;;;;;;;6.14;100.00;100516.28;5013635;28;20041;-88
2023/12/12 06:43:43;;;;;;;12.35;3.47;;;;;;;6.14;100.00;100515.41;5012276;28;20129;-88
2023/12/12 06:46:09;;;;;;;10.48;2.75;;;;;;;6.15;100.00;100510.22;5007489;28;20374;-88
2023/12/12 06:48:34;;;;;;;7.80;2.80;;;;;;;6.18;100.00;100509.34;5013423;28;20036;-88
2023/12/12 06:51:00;;;;;;;12.27;2.85;;;;;;;6.16;100.00;100506.75;5013468;28;20018;-88
2023/12/12 06:53:25;;;;;;;11.88;3.03;;;;;;;6.17;100.00;100505.88;5010744;28;20459;-88
2023/12/12 06:55:50;;;;;;;9.57;2.30;;;;;;;6.16;100.00;100501.59;5011252;28;20038;-89
2023/12/12 06:58:16;;;;;;;7.85;2.33;;;;;;;6.17;100.00;100500.72;5012635;28;20417;-89
2023/12/12 07:00:44;;;;;;;8.00;2.47;;;;;;;6.15;100.00;100494.72;5013521;28;20519;-88
2023/12/12 07:03:10;;;;;;;11.88;3.10;;;;;;;6.16;100.00;100498.16;5015482;28;20014;-88
2023/12/12 07:05:36;;;;;;;8.88;2.70;;;;;;;6.15;100.00;100492.13;5011983;28;20018;-88
2023/12/12 07:08:02;;;;;;;9.65;2.70;;;;;;;6.14;100.00;100490.44;5005829;28;20028;-88
2023/12/12 07:10:27;;;;;;;8.00;2.83;;;;;;;6.14;100.00;100482.69;5011903;28;20690;-88
2023/12/12 07:12:53;;;;;;;10.27;2.88;;;;;;;6.15;100.00;100486.97;5012808;28;20030;-88
2023/12/12 07:15:19;;;;;;;10.48;2.65;;;;;;;6.17;100.00;100484.38;5024339;28;20076;-88
2023/12/12 07:17:45;;;;;;;7.03;2.42;;;;;;;6.17;100.00;100480.06;5016808;28;20493;-89
2023/12/12 07:20:11;;;;;;;9.43;2.92;;;;;;;6.18;100.00;100470.59;5013065;28;20026;-88
2023/12/12 07:22:38;;;;;;;12.18;2.95;;;;;;;6.18;100.00;100470.59;5008808;28;20018;-88
2023/12/12 07:25:04;;;;;;;9.63;2.65;;;;;;;6.18;100.00;100461.09;5004973;28;20030;-88
2023/12/12 07:27:29;;;;;;;9.55;2.60;;;;;;;6.16;100.00;100457.69;5022127;28;20037;-88
2023/12/12 07:29:54;;;;;;;12.00;2.80;;;;;;;6.16;100.00;100462.00;5019993;28;20076;-88
2023/12/12 07:32:20;;;;;;;11.75;2.70;;;;;;;6.13;100.00;100460.31;5023577;28;20052;-89
2023/12/12 07:34:45;;;;;;;11.45;3.10;;;;;;;6.12;100.00;100460.34;5012932;28;20022;-89
2023/12/12 07:37:10;;;;;;;11.85;2.58;;;;;;;6.10;100.00;100462.94;5012582;28;20481;-88
2023/12/12 07:39:36;;;;;;;11.90;3.03;;;;;;;6.11;100.00;100467.25;5009643;28;21610;-88
2023/12/12 07:42:01;;;;;;;10.60;2.55;;;;;;;6.11;100.00;100461.19;5008610;28;20025;-88
2023/12/12 07:44:27;;;;;;;10.45;2.53;;;;;;;6.09;100.00;100461.25;5010241;28;20032;-88
2023/12/12 07:46:52;;;;;;;11.18;2.78;;;;;;;6.12;100.00;100463.78;5001444;28;20064;-89
2023/12/12 07:49:18;;;;;;;7.95;2.55;;;;;;;6.14;100.00;100456.88;5011057;28;20061;-88
2023/12/12 07:51:43;;;;;;;12.20;2.40;;;;;;;6.15;100.00;100448.22;5011267;28;20109;-88
2023/12/12 07:54:09;;;;;;;6.85;2.33;;;;;;;6.18;100.00;100455.94;5004378;28;20492;-88
2023/12/12 07:56:35;;;;;;;13.57;2.88;;;;;;;6.21;100.00;100448.16;5008627;28;20390;-88
2023/12/12 07:59:00;;;;;;;7.85;2.40;;;;;;;6.23;100.00;100433.47;5008974;28;20026;-89
2023/12/12 08:01:26;;;;;;;11.07;3.00;;;;;;;6.28;100.00;100440.31;5009025;28;20030;-88
2023/12/12 08:03:52;;;;;;;8.77;2.25;;;;;;;6.31;100.00;100433.38;5009431;28;20018;-89
2023/12/12 08:06:18;;;;;;;8.80;2.35;;;;;;;6.33;100.00;100441.97;5005891;28;20493;-88
2023/12/12 08:08:43;;;;;;;9.15;2.60;;;;;;;6.36;100.00;100422.97;5007518;28;20035;-88
2023/12/12 08:11:13;;;;;;;9.82;2.55;;;;;;;6.39;100.00;100428.09;5005234;28;20104;-89
2023/12/12 08:13:38;;;;;;;8.57;2.63;;;;;;;6.42;100.00;100433.22;5005256;28;20062;-88
2023/12/12 08:16:04;;;;;;;10.23;2.53;;;;;;;6.46;100.00;100424.53;5007473;28;20072;-88
2023/12/12 08:18:30;;;;;;;9.27;2.65;;;;;;;6.49;100.00;100427.06;5007474;28;20026;-89
2023/12/12 08:20:55;;;;;;;11.75;2.90;;;;;;;6.52;100.00;100421.84;5007186;28;20018;-89
2023/12/12 08:23:21;;;;;;;10.00;2.80;;;;;;;6.56;100.00;100419.22;5011249;28;20556;-89
2023/12/12 08:25:47;;;;;;;10.85;2.90;;;;;;;6.62;100.00;100425.13;5014817;28;20025;-88
2023/12/12 08:28:13;;;;;;;10.95;2.40;;;;;;;6.70;100.00;100421.59;5008784;28;20022;-88
2023/12/12 08:30:39;;;;;;;11.82;2.58;;;;;;;6.73;100.00;100417.22;5010727;28;20018;-88
2023/12/12 08:33:04;;;;;;;7.32;2.78;;;;;;;6.75;100.00;100415.47;5009257;28;20539;-89
2023/12/12 08:35:29;;;;;;;8.35;2.60;;;;;;;6.76;100.00;100412.00;5007676;28;20053;-89
2023/12/12 08:37:55;;;;;;;10.70;2.65;;;;;;;6.76;100.00;100401.66;5007989;28;20026;-89
2023/12/12 08:40:20;;;;;;;8.57;2.70;;;;;;;6.78;100.00;100405.06;5009418;28;20030;-89
2023/12/12 08:42:45;;;;;;;10.75;2.75;;;;;;;6.79;100.00;100406.78;5012083;28;20018;-88
2023/12/12 08:45:11;;;;;;;8.88;2.60;;;;;;;6.80;100.00;100398.16;5010142;28;20599;-89
2023/12/12 08:47:36;;;;;;;11.35;2.58;;;;;;;6.84;100.00;100396.34;5001028;28;20112;-88
2023/12/12 08:50:03;;;;;;;8.82;2.70;;;;;;;6.85;100.00;100392.88;5014638;28;20442;-88
2023/12/12 08:52:31;;;;;;;10.85;2.85;;;;;;;6.87;100.00;100385.09;5008408;28;20026;-88
2023/12/12 08:54:56;;;;;;;11.35;2.75;;;;;;;6.89;100.00;100386.78;5003634;28;20034;-88
2023/12/12 08:57:22;;;;;;;11.27;2.70;;;;;;;6.93;100.00;100383.25;5013345;28;20016;-89
2023/12/12 08:59:47;;;;;;;8.77;2.47;;;;;;;6.96;100.00;100379.78;5010249;28;20362;-88
2023/12/12 09:02:12;;;;;;;10.32;2.85;;;;;;;6.98;100.00;100375.44;5016217;28;20496;-89
2023/12/12 09:04:38;;;;;;;11.45;3.00;;;;;;;7.00;100.00;100373.66;5010770;28;20018;-88
2023/12/12 09:07:03;;;;;;;10.98;3.58;;;;;;;7.04;100.00;100372.69;5013960;28;20065;-88
2023/12/12 09:09:31;;;;;;;7.80;2.83;;;;;;;7.06;100.00;100368.38;5008331;28;20033;-89
2023/12/12 09:11:57;;;;;;;9.70;3.20;;;;;;;7.09;100.00;100363.13;5019774;28;20491;-89
2023/12/12 09:14:22;;;;;;;10.27;3.28;;;;;;;7.14;100.00;100363.03;5013393;28;20025;-91
2023/12/12 09:16:48;;;;;;;9.40;2.88;;;;;;;7.19;100.00;100357.78;5007582;28;20053;-89
2023/12/12 09:19:16;;;;;;;11.27;2.95;;;;;;;7.27;100.00;100358.47;5012187;28;20029;-88
2023/12/12 09:21:41;;;;;;;7.97;2.75;;;;;;;7.35;100.00;100354.00;5013049;28;20018;-88
2023/12/12 09:24:07;;;;;;;10.63;3.00;;;;;;;7.43;100.00;100351.25;5019662;28;20380;-89
2023/12/12 09:26:33;;;;;;;15.45;3.10;;;;;;;7.47;100.00;100339.13;5016339;28;20029;-89
2023/12/12 09:28:58;;;;;;;9.05;2.70;;;;;;;7.51;100.00;100335.59;5008368;28;20040;-88
2023/12/12 09:31:26;;;;;;;8.80;2.33;;;;;;;7.55;100.00;100339.78;5018428;28;20071;-89
2023/12/12 09:33:51;;;;;;;8.75;2.60;;;;;;;7.59;100.00;100326.78;5013190;28;20051;-89
2023/12/12 09:36:17;;;;;;;8.13;2.70;;;;;;;7.63;100.00;100340.50;5010592;28;20033;-89
2023/12/12 09:38:42;;;;;;;14.50;3.20;;;;;;;7.69;100.00;100339.50;5008671;28;20033;-89
2023/12/12 09:41:16;;;;;;;11.80;2.78;;;;;;;7.72;100.00;100327.31;5018358;28;20014;-89
2023/12/12 09:43:44;;;;;;;11.40;2.97;;;;;;;7.77;100.00;100323.78;5011893;28;20018;-88
2023/12/12 09:46:09;;;;;;;13.68;2.90;;;;;;;7.80;100.00;100324.56;5010608;28;20531;-89
2023/12/12 09:48:35;;;;;;;7.43;2.53;;;;;;;7.83;100.00;100323.66;5018225;28;20030;-89
2023/12/12 09:51:03;;;;;;;12.43;2.80;;;;;;;7.88;100.00;100321.81;5018785;28;20053;-88
2023/12/12 09:53:32;;;;;;;7.38;2.42;;;;;;;7.94;100.00;100324.25;5005273;28;20092;-89
2023/12/12 09:56:01;;;;;;;11.52;2.60;;;;;;;7.97;100.00;100331.09;5006499;28;20018;-86
2023/12/12 09:58:28;;;;;;;10.55;2.70;;;;;;;7.99;100.00;100313.78;5010997;28;20029;-87
2023/12/12 10:00:55;;;;;;;13.82;3.35;;;;;;;8.01;100.00;100323.25;5011036;28;20538;-88
2023/12/12 10:03:21;;;;;;;12.27;3.00;;;;;;;8.06;100.00;100323.13;5010757;28;20102;-89
2023/12/12 10:05:53;;;;;;;10.15;3.20;;;;;;;8.10;100.00;100305.75;5015784;28;20029;-88
2023/12/12 10:08:19;;;;;;;12.13;3.38;;;;;;;8.13;100.00;100296.16;5016640;28;20034;-89
2023/12/12 10:10:44;;;;;;;9.55;3.30;;;;;;;8.17;100.00;100289.19;5013237;28;20025;-88
2023/12/12 10:13:09;;;;;;;10.73;2.50;;;;;;;8.24;100.00;100282.13;5013093;28;20026;-89
2023/12/12 10:15:35;;;;;;;10.27;2.90;;;;;;;8.27;100.00;100276.84;5005552;28;20076;-89
2023/12/12 10:18:00;;;;;;;9.60;2.60;;;;;;;8.31;100.00;100268.09;5010531;28;20051;-89
2023/12/12 10:20:27;;;;;;;10.75;2.55;;;;;;;8.36;100.00;100258.47;5010920;28;20021;-88
2023/12/12 10:22:56;;;;;;;9.00;2.83;;;;;;;8.41;100.00;100254.03;5007745;28;20592;-89
2023/12/12 10:25:22;;;;;;;10.30;2.67;;;;;;;8.46;100.00;100246.13;5013344;28;20201;-89
2023/12/12 10:27:52;;;;;;;10.43;2.40;;;;;;;8.50;100.00;100240.00;5015540;28;20095;-88
2023/12/12 10:30:18;;;;;;;8.45;2.35;;;;;;;8.54;100.00;100236.41;5012615;28;20480;-89
2023/12/12 10:32:43;;;;;;;9.82;2.42;;;;;;;8.59;100.00;100238.91;5012684;28;20084;-89
2023/12/12 10:35:09;;;;;;;9.10;2.35;;;;;;;8.63;100.00;100238.78;5009686;28;20046;-88
2023/12/12 10:37:34;;;;;;;7.68;2.58;;;;;;;8.69;100.00;100236.91;5022183;28;20465;-89
2023/12/12 10:40:21;;;;;;;8.20;2.15;;;;;;;8.75;100.00;100236.72;5017258;28;20479;-89
2023/12/12 10:42:50;;;;;;;8.77;2.58;;;;;;;8.80;100.00;100232.25;5013231;28;20053;-90
2023/12/12 10:45:16;;;;;;;7.45;2.33;;;;;;;8.88;100.00;100237.22;5013652;28;20481;-90
2023/12/12 10:47:46;;;;;;;7.07;2.35;;;;;;;8.95;100.00;100218.00;5012529;28;20027;-89
2023/12/12 10:50:13;;;;;;;8.70;2.25;;;;;;;9.01;100.00;100216.97;5008427;28;20022;-89
2023/12/12 10:52:40;;;;;;;7.38;2.20;;;;;;;9.07;100.00;100216.78;5014033;28;20068;-88
2023/12/12 10:55:10;;;;;;;8.82;2.30;;;;;;;9.12;100.00;100214.91;5015938;28;20072;-89
2023/12/12 10:57:42;;;;;;;10.43;2.67;;;;;;;9.17;100.00;100210.44;5017959;28;20536;-88
2023/12/12 11:00:11;;;;;;;;;;;;;;;9.22;100.00;100208.53;5014903;28;20383;-89
2023/12/12 11:02:41;;;;;;;6.15;2.30;;;;;;;9.28;100.00;100199.72;5007130;28;19913;-90
2023/12/12 11:05:11;;;;;;;7.03;2.10;;;;;;;9.34;100.00;100196.94;5009999;28;20096;-88
2023/12/12 11:07:41;;;;;;;5.70;1.95;;;;;;;9.37;100.00;100189.06;5013176;28;20026;-89
2023/12/12 11:10:11;;;;;;;5.15;2.00;;;;;;;9.37;100.00;100185.63;5027578;28;20421;-92
2023/12/12 11:12:50;;;;;;;9.32;2.00;;;;;;;9.38;100.00;100179.53;5012425;28;20033;-89
2023/12/12 11:15:18;;;;;;;6.85;2.00;;;;;;;9.37;100.00;100177.84;5003182;28;20050;-90